Time;durP1;ratioP1;P1;durP2;ratioP2;P2;SDS_P1;SDS_P2;PMS_P1;PMS_P2;Temp;Humidity;BMP_temperature;BMP_pressure;BME280_temperature;BME280_humidity;BME280_pressure;Samples;Min_cycle;Max_cycle;Signal;HPM_P1;HPM_P2
2023/07/17 00:01:43;;;;;;;8.98;2.17;;;;;;;;;;4998158;28;99272;-76
2023/07/17 00:04:10;;;;;;;10.48;3.10;;;;;;;;;;4998749;28;98787;-75
2023/07/17 00:06:37;;;;;;;9.43;2.55;;;;;;;;;;5002792;28;98666;-74
2023/07/17 00:09:04;;;;;;;10.13;2.72;;;;;;;;;;5011431;28;99245;-76
2023/07/17 00:11:30;;;;;;;17.90;2.72;;;;;;;;;;4996642;28;100414;-75
2023/07/17 00:13:56;;;;;;;10.35;3.28;;;;;;;;;;5006495;28;99009;-76
2023/07/17 00:16:23;;;;;;;12.52;3.13;;;;;;;;;;5013202;28;99137;-78
2023/07/17 00:18:49;;;;;;;11.35;2.40;;;;;;;;;;5010576;28;98817;-75
2023/07/17 00:21:16;;;;;;;13.43;3.05;;;;;;;;;;5011722;28;98903;-76
2023/07/17 00:23:43;;;;;;;22.60;3.40;;;;;;;;;;5011362;28;99362;-80
2023/07/17 00:26:09;;;;;;;20.77;2.88;;;;;;;;;;4995067;28;100809;-78
2023/07/17 00:28:36;;;;;;;18.27;4.05;;;;;;;;;;4992107;28;99208;-78
2023/07/17 00:31:02;;;;;;;15.82;2.85;;;;;;;;;;4999193;28;99438;-84
2023/07/17 00:33:29;;;;;;;13.32;2.80;;;;;;;;;;4999516;28;98687;-84
2023/07/17 00:35:56;;;;;;;15.02;3.55;;;;;;;;;;5008575;28;100828;-85
2023/07/17 00:38:22;;;;;;;17.17;3.53;;;;;;;;;;5008928;28;100493;-86
2023/07/17 00:40:49;;;;;;;19.10;3.10;;;;;;;;;;5002582;28;100338;-79
2023/07/17 00:43:15;;;;;;;19.75;3.97;;;;;;;;;;4994683;28;100716;-79
2023/07/17 00:45:43;;;;;;;15.85;2.97;;;;;;;;;;4989890;28;98580;-79
2023/07/17 00:48:10;;;;;;;16.52;3.38;;;;;;;;;;5001712;28;99221;-79
2023/07/17 00:50:37;;;;;;;13.45;2.80;;;;;;;;;;4999046;28;100490;-80
2023/07/17 00:53:04;;;;;;;18.35;3.58;;;;;;;;;;4999597;28;97840;-80
2023/07/17 00:55:32;;;;;;;17.27;3.13;;;;;;;;;;5002383;28;98851;-79
2023/07/17 00:57:59;;;;;;;9.32;2.60;;;;;;;;;;4988865;28;99231;-78
2023/07/17 01:00:25;;;;;;;16.00;3.10;;;;;;;;;;4997407;28;99591;-78
2023/07/17 01:02:52;;;;;;;15.60;2.92;;;;;;;;;;5009039;28;100028;-79
2023/07/17 01:05:19;;;;;;;11.32;3.40;;;;;;;;;;5004527;28;98599;-78
2023/07/17 01:07:45;;;;;;;14.15;2.83;;;;;;;;;;4998789;28;100438;-79
2023/07/17 01:10:12;;;;;;;8.63;2.40;;;;;;;;;;5010384;28;99529;-78
2023/07/17 01:12:38;;;;;;;17.23;3.17;;;;;;;;;;4992624;28;98589;-78
2023/07/17 01:15:06;;;;;;;10.85;2.65;;;;;;;;;;4991122;28;99733;-78
2023/07/17 01:17:33;;;;;;;12.05;3.03;;;;;;;;;;4999563;28;98736;-82
2023/07/17 01:20:00;;;;;;;8.55;2.50;;;;;;;;;;5003170;28;98817;-78
2023/07/17 01:22:27;;;;;;;7.40;2.55;;;;;;;;;;4993542;28;99546;-76
2023/07/17 01:24:53;;;;;;;13.07;2.95;;;;;;;;;;5004914;28;99307;-74
2023/07/17 01:27:20;;;;;;;8.77;2.65;;;;;;;;;;4995720;28;100119;-76
2023/07/17 01:29:46;;;;;;;7.50;2.50;;;;;;;;;;5004592;28;99965;-75
2023/07/17 01:32:13;;;;;;;7.22;2.22;;;;;;;;;;4991262;28;98538;-75
2023/07/17 01:34:41;;;;;;;12.25;2.75;;;;;;;;;;4992401;28;99774;-75
2023/07/17 01:37:08;;;;;;;8.90;2.22;;;;;;;;;;4999464;28;99604;-76
2023/07/17 01:39:34;;;;;;;8.45;1.90;;;;;;;;;;5005463;28;98721;-76
2023/07/17 01:42:01;;;;;;;8.88;2.55;;;;;;;;;;5009271;28;99491;-75
2023/07/17 01:44:28;;;;;;;6.47;2.10;;;;;;;;;;4995040;28;98546;-75
2023/07/17 01:46:55;;;;;;;9.20;2.40;;;;;;;;;;4998553;28;99203;-75
2023/07/17 01:49:21;;;;;;;10.38;2.22;;;;;;;;;;5007877;28;100506;-74
2023/07/17 01:51:47;;;;;;;3.28;1.48;;;;;;;;;;5003728;28;98584;-74
2023/07/17 01:54:14;;;;;;;4.38;1.83;;;;;;;;;;4993079;28;99293;-74
2023/07/17 01:56:40;;;;;;;5.80;2.22;;;;;;;;;;4995673;28;100020;-74
2023/07/17 01:59:07;;;;;;;8.90;2.50;;;;;;;;;;4990636;28;98622;-75
2023/07/17 02:01:33;;;;;;;11.05;2.47;;;;;;;;;;4992876;28;99195;-76
2023/07/17 02:04:00;;;;;;;10.30;1.98;;;;;;;;;;5001390;28;99684;-74
2023/07/17 02:06:28;;;;;;;8.57;2.05;;;;;;;;;;4998672;28;99743;-75
2023/07/17 02:08:55;;;;;;;7.65;2.30;;;;;;;;;;5008222;28;99517;-75
2023/07/17 02:11:27;;;;;;;7.22;1.85;;;;;;;;;;5004535;28;98607;-75
2023/07/17 02:13:54;;;;;;;11.50;2.63;;;;;;;;;;4993576;28;99283;-74
2023/07/17 02:16:20;;;;;;;8.85;2.10;;;;;;;;;;5000178;28;99636;-72
2023/07/17 02:18:49;;;;;;;7.68;2.20;;;;;;;;;;4991921;28;98735;-73
2023/07/17 02:21:16;;;;;;;7.53;2.15;;;;;;;;;;4989850;28;99383;-73
2023/07/17 02:23:43;;;;;;;5.90;2.13;;;;;;;;;;4988251;28;99881;-74
2023/07/17 02:26:10;;;;;;;9.93;2.42;;;;;;;;;;5001817;28;99268;-73
2023/07/17 02:28:37;;;;;;;8.75;2.35;;;;;;;;;;4989450;28;99387;-74
2023/07/17 02:31:03;;;;;;;4.07;1.80;;;;;;;;;;4998810;28;97817;-74
2023/07/17 02:33:30;;;;;;;10.00;2.25;;;;;;;;;;4996034;28;98610;-77
2023/07/17 02:35:56;;;;;;;15.13;2.47;;;;;;;;;;4994518;28;99476;-73
2023/07/17 02:38:23;;;;;;;4.68;1.80;;;;;;;;;;5007107;28;99451;-78
2023/07/17 02:40:49;;;;;;;9.63;2.30;;;;;;;;;;4990576;28;99179;-78
2023/07/17 02:43:15;;;;;;;14.93;2.55;;;;;;;;;;5007318;28;99476;-80
2023/07/17 02:45:42;;;;;;;7.20;2.08;;;;;;;;;;4994561;28;98505;-80
2023/07/17 02:48:08;;;;;;;10.10;2.50;;;;;;;;;;5009423;28;99182;-80
2023/07/17 02:50:35;;;;;;;7.22;2.10;;;;;;;;;;5002518;28;98775;-79
2023/07/17 02:53:02;;;;;;;9.05;2.22;;;;;;;;;;4992006;28;100237;-79
2023/07/17 02:55:29;;;;;;;10.63;2.38;;;;;;;;;;4990255;28;99713;-83
2023/07/17 02:57:55;;;;;;;12.07;2.92;;;;;;;;;;4988468;28;98598;-79
2023/07/17 03:00:22;;;;;;;11.00;2.72;;;;;;;;;;4988188;28;100243;-79
2023/07/17 03:02:51;;;;;;;14.13;2.40;;;;;;;;;;4989129;28;100185;-79
2023/07/17 03:05:18;;;;;;;;;;;;;;;;;;4993685;28;98631;-80
2023/07/17 03:07:46;;;;;;;10.07;2.65;;;;;;;;;;4990663;28;129820;-84
2023/07/17 03:10:13;;;;;;;10.38;2.47;;;;;;;;;;4995473;28;100557;-83
2023/07/17 03:12:39;;;;;;;12.15;2.25;;;;;;;;;;5005302;28;99641;-84
2023/07/17 03:15:08;;;;;;;8.15;2.30;;;;;;;;;;4999326;28;100589;-84
2023/07/17 03:17:34;;;;;;;9.75;2.75;;;;;;;;;;5004303;28;98558;-84
2023/07/17 03:20:01;;;;;;;12.27;2.80;;;;;;;;;;5005013;27;103171;-84
2023/07/17 03:22:29;;;;;;;8.98;2.75;;;;;;;;;;5008595;28;100604;-84
2023/07/17 03:24:55;;;;;;;8.75;2.58;;;;;;;;;;4993179;28;99555;-84
2023/07/17 03:27:22;;;;;;;11.27;2.67;;;;;;;;;;4993228;28;100701;-84
2023/07/17 03:29:48;;;;;;;8.07;2.70;;;;;;;;;;4996704;28;100579;-77
2023/07/17 03:32:15;;;;;;;7.57;2.78;;;;;;;;;;4994469;28;100485;-81
2023/07/17 03:34:41;;;;;;;15.10;3.10;;;;;;;;;;5003128;28;99522;-81
2023/07/17 03:37:07;;;;;;;12.10;2.72;;;;;;;;;;4995652;28;98615;-81
2023/07/17 03:39:35;;;;;;;7.97;2.47;;;;;;;;;;4997816;28;103262;-81
2023/07/17 03:42:04;;;;;;;13.15;2.85;;;;;;;;;;4996721;28;99497;-81
2023/07/17 03:44:31;;;;;;;10.05;3.10;;;;;;;;;;4993315;28;98160;-81
2023/07/17 03:46:57;;;;;;;13.23;2.80;;;;;;;;;;5006966;28;101619;-79
2023/07/17 03:49:24;;;;;;;11.95;3.22;;;;;;;;;;5000817;28;99446;-78
2023/07/17 03:51:50;;;;;;;13.20;3.17;;;;;;;;;;4995230;28;99269;-78
2023/07/17 03:54:16;;;;;;;11.05;3.00;;;;;;;;;;5003983;28;103067;-80
2023/07/17 03:56:43;;;;;;;9.00;3.03;;;;;;;;;;5003889;28;98520;-80
2023/07/17 03:59:09;;;;;;;12.88;3.22;;;;;;;;;;5000545;28;100259;-81
2023/07/17 04:01:36;;;;;;;12.90;3.58;;;;;;;;;;4995118;28;99524;-82
2023/07/17 04:04:03;;;;;;;13.02;3.38;;;;;;;;;;5000137;28;100405;-78
2023/07/17 04:06:29;;;;;;;8.60;3.20;;;;;;;;;;4992399;28;99669;-78
2023/07/17 04:08:56;;;;;;;17.73;3.40;;;;;;;;;;5007246;28;99967;-79
2023/07/17 04:11:22;;;;;;;14.57;3.00;;;;;;;;;;5010973;28;100012;-77
2023/07/17 04:13:50;;;;;;;9.98;3.00;;;;;;;;;;5011403;28;100524;-77
2023/07/17 04:16:19;;;;;;;12.32;3.83;;;;;;;;;;4997954;28;99257;-78
2023/07/17 04:18:46;;;;;;;11.10;3.10;;;;;;;;;;5010509;28;99427;-77
2023/07/17 04:21:12;;;;;;;7.82;2.95;;;;;;;;;;5000727;28;102083;-84
2023/07/17 04:23:39;;;;;;;15.50;3.33;;;;;;;;;;4992439;28;98474;-83
2023/07/17 04:26:05;;;;;;;12.90;3.95;;;;;;;;;;4994658;28;99824;-77
2023/07/17 04:28:31;;;;;;;17.30;3.55;;;;;;;;;;5009836;28;99865;-79
2023/07/17 04:31:01;;;;;;;12.75;3.75;;;;;;;;;;5005576;28;98534;-79
2023/07/17 04:33:27;;;;;;;16.65;3.45;;;;;;;;;;4994258;28;99420;-81
2023/07/17 04:35:53;;;;;;;15.13;3.78;;;;;;;;;;5006855;28;100938;-77
2023/07/17 04:38:20;;;;;;;11.85;3.45;;;;;;;;;;4997860;28;102146;-84
2023/07/17 04:40:46;;;;;;;10.63;3.35;;;;;;;;;;4992340;28;101436;-84
2023/07/17 04:43:13;;;;;;;11.70;3.83;;;;;;;;;;5002489;28;98601;-85
2023/07/17 04:45:42;;;;;;;18.42;4.38;;;;;;;;;;5010126;28;100274;-85
2023/07/17 04:48:08;;;;;;;12.50;3.80;;;;;;;;;;4994569;28;102806;-85
2023/07/17 04:50:35;;;;;;;13.40;4.05;;;;;;;;;;4995006;28;98489;-86
2023/07/17 04:53:01;;;;;;;10.93;3.25;;;;;;;;;;5000845;28;100476;-85
2023/07/17 04:55:28;;;;;;;17.80;4.18;;;;;;;;;;5006043;28;101005;-83
2023/07/17 04:57:55;;;;;;;14.70;3.17;;;;;;;;;;5003106;28;98094;-77
2023/07/17 05:00:22;;;;;;;12.32;3.70;;;;;;;;;;5003865;28;99497;-80
2023/07/17 05:02:49;;;;;;;14.60;4.13;;;;;;;;;;4996933;28;98511;-83
2023/07/17 05:05:17;;;;;;;16.38;4.20;;;;;;;;;;4998541;28;104253;-83
2023/07/17 05:07:43;;;;;;;16.08;4.05;;;;;;;;;;4997832;28;100539;-83
2023/07/17 05:10:11;;;;;;;16.40;4.30;;;;;;;;;;4992407;28;98986;-84
2023/07/17 05:12:38;;;;;;;16.83;4.53;;;;;;;;;;4992492;28;100576;-82
2023/07/17 05:15:05;;;;;;;17.10;4.93;;;;;;;;;;5006413;28;99901;-84
2023/07/17 05:17:32;;;;;;;9.45;3.92;;;;;;;;;;5010685;28;98758;-84
2023/07/17 05:19:58;;;;;;;19.90;5.22;;;;;;;;;;5005773;28;100273;-84
2023/07/17 05:22:26;;;;;;;13.05;4.55;;;;;;;;;;4992093;28;97908;-85
2023/07/17 05:24:52;;;;;;;14.20;4.32;;;;;;;;;;4992748;28;99573;-84
2023/07/17 05:27:19;;;;;;;18.20;5.07;;;;;;;;;;5009654;28;100661;-81
2023/07/17 05:29:45;;;;;;;13.18;4.80;;;;;;;;;;5008002;28;99625;-83
2023/07/17 05:32:12;;;;;;;15.65;5.05;;;;;;;;;;5007785;28;100031;-82
2023/07/17 05:34:39;;;;;;;10.65;5.00;;;;;;;;;;5008042;28;100574;-83
2023/07/17 05:37:05;;;;;;;18.13;5.60;;;;;;;;;;5003875;28;98564;-84
2023/07/17 05:39:31;;;;;;;15.50;4.90;;;;;;;;;;5008324;28;100485;-84
2023/07/17 05:41:58;;;;;;;14.00;4.82;;;;;;;;;;4990815;28;98593;-83
2023/07/17 05:44:24;;;;;;;17.55;5.55;;;;;;;;;;4997399;28;99768;-81
2023/07/17 05:46:51;;;;;;;20.23;5.88;;;;;;;;;;4998359;28;99804;-79
2023/07/17 05:49:18;;;;;;;19.05;6.15;;;;;;;;;;4996378;28;98530;-80
2023/07/17 05:51:47;;;;;;;16.80;6.13;;;;;;;;;;4999494;28;100283;-82
2023/07/17 05:54:14;;;;;;;20.65;6.25;;;;;;;;;;4998634;28;100743;-81
2023/07/17 05:56:40;;;;;;;16.67;5.85;;;;;;;;;;5003784;28;98914;-78
2023/07/17 05:59:07;;;;;;;21.08;6.22;;;;;;;;;;4998078;28;100312;-76
2023/07/17 06:01:39;;;;;;;21.40;7.18;;;;;;;;;;5002661;28;99669;-78
2023/07/17 06:04:07;;;;;;;21.63;6.20;;;;;;;;;;4996509;28;99173;-77
2023/07/17 06:06:34;;;;;;;25.88;6.80;;;;;;;;;;5006382;28;99697;-76
2023/07/17 06:09:01;;;;;;;23.00;6.57;;;;;;;;;;4999911;28;98868;-77
2023/07/17 06:11:27;;;;;;;22.48;7.75;;;;;;;;;;4990738;28;99740;-77
2023/07/17 06:13:53;;;;;;;23.02;7.15;;;;;;;;;;4989406;28;99803;-76
2023/07/17 06:16:20;;;;;;;21.83;7.75;;;;;;;;;;4993347;28;99301;-76
2023/07/17 06:18:46;;;;;;;20.02;7.22;;;;;;;;;;4995786;28;99286;-76
2023/07/17 06:21:13;;;;;;;17.60;7.20;;;;;;;;;;4988640;28;99744;-76
2023/07/17 06:23:39;;;;;;;21.77;7.57;;;;;;;;;;4993026;28;98869;-76
2023/07/17 06:26:06;;;;;;;22.38;7.75;;;;;;;;;;4989912;28;99559;-76
2023/07/17 06:28:32;;;;;;;21.15;7.82;;;;;;;;;;4994930;28;99245;-77
2023/07/17 06:30:59;;;;;;;20.48;8.18;;;;;;;;;;4989715;28;99008;-76
2023/07/17 06:33:25;;;;;;;27.85;7.97;;;;;;;;;;4987163;28;99886;-76
2023/07/17 06:35:52;;;;;;;26.90;8.50;;;;;;;;;;5002169;28;98303;-76
2023/07/17 06:38:18;;;;;;;23.08;7.97;;;;;;;;;;5008268;28;99600;-76
2023/07/17 06:40:44;;;;;;;23.30;8.20;;;;;;;;;;5001517;28;100003;-76
2023/07/17 06:43:11;;;;;;;23.90;8.32;;;;;;;;;;4995071;28;101300;-76
2023/07/17 06:45:37;;;;;;;20.90;8.55;;;;;;;;;;4995839;28;100283;-77
2023/07/17 06:48:04;;;;;;;31.05;9.43;;;;;;;;;;5003394;28;98692;-77
2023/07/17 06:50:30;;;;;;;23.30;8.68;;;;;;;;;;4992401;28;99232;-77
2023/07/17 06:52:56;;;;;;;18.77;8.07;;;;;;;;;;4995492;28;99548;-77
2023/07/17 06:55:23;;;;;;;23.30;8.15;;;;;;;;;;4997505;28;100422;-77
2023/07/17 06:57:49;;;;;;;18.65;8.40;;;;;;;;;;5008833;28;99101;-76
2023/07/17 07:00:16;;;;;;;32.28;8.55;;;;;;;;;;4997911;28;98734;-76
2023/07/17 07:02:42;;;;;;;22.13;7.72;;;;;;;;;;4993158;28;98553;-76
2023/07/17 07:05:09;;;;;;;27.27;8.25;;;;;;;;;;4991821;28;102601;-76
2023/07/17 07:07:35;;;;;;;24.35;8.57;;;;;;;;;;5008583;28;101580;-76
2023/07/17 07:10:02;;;;;;;27.65;7.50;;;;;;;;;;5012669;28;100124;-76
2023/07/17 07:12:28;;;;;;;21.35;7.32;;;;;;;;;;5002798;28;99495;-77
2023/07/17 07:14:55;;;;;;;28.55;8.85;;;;;;;;;;4992008;28;98622;-76
2023/07/17 07:17:21;;;;;;;21.10;7.53;;;;;;;;;;4995826;28;99561;-76
2023/07/17 07:19:49;;;;;;;17.90;7.18;;;;;;;;;;4995249;28;99560;-76
2023/07/17 07:22:16;;;;;;;17.48;7.82;;;;;;;;;;5003458;28;98697;-76
2023/07/17 07:24:45;;;;;;;17.98;7.35;;;;;;;;;;5012991;28;99517;-76
2023/07/17 07:27:11;;;;;;;28.38;8.65;;;;;;;;;;5001583;28;99434;-76
2023/07/17 07:29:38;;;;;;;21.13;6.97;;;;;;;;;;5006166;28;98552;-76
2023/07/17 07:32:05;;;;;;;22.10;6.88;;;;;;;;;;5011544;28;100260;-76
2023/07/17 07:34:35;;;;;;;17.75;6.57;;;;;;;;;;5010972;28;98531;-77
2023/07/17 07:37:02;;;;;;;18.02;7.13;;;;;;;;;;4988626;28;100599;-77
2023/07/17 07:39:29;;;;;;;21.75;6.57;;;;;;;;;;4996306;28;99604;-76
2023/07/17 07:41:55;;;;;;;21.27;6.53;;;;;;;;;;5008563;28;100160;-76
2023/07/17 07:44:21;;;;;;;19.73;6.30;;;;;;;;;;5000730;28;99380;-77
2023/07/17 07:46:48;;;;;;;27.67;6.50;;;;;;;;;;5005701;28;100457;-76
2023/07/17 07:49:15;;;;;;;18.42;6.20;;;;;;;;;;4995951;28;97788;-76
2023/07/17 07:51:42;;;;;;;19.98;6.25;;;;;;;;;;5003353;28;99876;-76
2023/07/17 07:54:08;;;;;;;23.08;6.68;;;;;;;;;;4993132;28;98564;-77
2023/07/17 07:56:47;;;;;;;15.55;6.20;;;;;;;;;;5001867;28;100422;-76
2023/07/17 07:59:14;;;;;;;26.52;6.57;;;;;;;;;;4991747;28;100576;-75
2023/07/17 08:01:40;;;;;;;27.30;6.28;;;;;;;;;;4992163;28;98769;-74
2023/07/17 08:04:06;;;;;;;22.13;6.40;;;;;;;;;;5002846;28;99229;-75
2023/07/17 08:06:33;;;;;;;12.20;4.90;;;;;;;;;;5010634;28;99865;-75
2023/07/17 08:08:59;;;;;;;15.63;5.53;;;;;;;;;;5011409;28;98598;-75
2023/07/17 08:11:26;;;;;;;14.50;5.63;;;;;;;;;;5015111;28;99202;-75
2023/07/17 08:13:52;;;;;;;23.65;6.05;;;;;;;;;;5010945;28;98251;-76
2023/07/17 08:16:20;;;;;;;17.80;5.78;;;;;;;;;;5011966;28;98607;-75
2023/07/17 08:18:47;;;;;;;19.92;6.15;;;;;;;;;;5011770;28;99740;-75
2023/07/17 08:21:14;;;;;;;16.17;5.78;;;;;;;;;;5011626;28;99533;-75
2023/07/17 08:23:41;;;;;;;12.68;4.07;;;;;;;;;;5001818;28;100068;-75
2023/07/17 08:26:08;;;;;;;23.55;5.80;;;;;;;;;;4991031;28;99740;-75
2023/07/17 08:28:35;;;;;;;19.33;5.00;;;;;;;;;;4991906;28;98523;-75
2023/07/17 08:31:03;;;;;;;13.50;5.28;;;;;;;;;;4989950;28;99615;-75
2023/07/17 08:33:29;;;;;;;22.92;4.78;;;;;;;;;;4997806;28;99480;-75
2023/07/17 08:35:56;;;;;;;20.10;4.68;;;;;;;;;;4991389;28;99223;-76
2023/07/17 08:38:22;;;;;;;16.38;4.80;;;;;;;;;;4991873;28;98762;-75
2023/07/17 08:40:54;;;;;;;10.30;4.57;;;;;;;;;;4993902;28;99224;-75
2023/07/17 08:43:21;;;;;;;16.75;4.82;;;;;;;;;;5004209;28;101512;-76
2023/07/17 08:45:48;;;;;;;15.43;4.70;;;;;;;;;;5010234;28;100269;-75
2023/07/17 08:48:15;;;;;;;13.70;4.15;;;;;;;;;;5030526;28;98813;-75
2023/07/17 08:50:42;;;;;;;16.70;5.05;;;;;;;;;;5026186;28;100220;-76
2023/07/17 08:53:09;;;;;;;19.20;4.60;;;;;;;;;;4999213;28;101982;-75
2023/07/17 08:55:35;;;;;;;15.05;4.63;;;;;;;;;;4997976;28;98703;-76
2023/07/17 08:58:03;;;;;;;14.00;4.60;;;;;;;;;;4989872;28;100758;-75
2023/07/17 09:00:30;;;;;;;15.68;4.28;;;;;;;;;;4989784;28;98629;-75
2023/07/17 09:02:57;;;;;;;9.77;3.53;;;;;;;;;;4992844;28;98898;-75
2023/07/17 09:05:24;;;;;;;16.15;4.68;;;;;;;;;;4990037;28;100390;-76
2023/07/17 09:07:51;;;;;;;10.77;3.97;;;;;;;;;;4991059;28;98861;-76
2023/07/17 09:10:21;;;;;;;9.88;4.18;;;;;;;;;;4991600;28;99607;-75
2023/07/17 09:12:47;;;;;;;;;;;;;;;;;;5008217;28;100565;-76
2023/07/17 09:15:15;;;;;;;9.13;3.55;;;;;;;;;;5012167;28;120569;-76
2023/07/17 09:17:42;;;;;;;8.73;3.22;;;;;;;;;;5014400;28;100569;-76
2023/07/17 09:20:10;;;;;;;8.65;2.65;;;;;;;;;;5011120;28;98515;-75
2023/07/17 09:22:40;;;;;;;9.48;3.67;;;;;;;;;;4994158;28;101485;-76
2023/07/17 09:25:07;;;;;;;7.75;3.38;;;;;;;;;;4990942;28;99297;-76
2023/07/17 09:27:49;;;;;;;16.60;4.07;;;;;;;;;;4991979;28;98102;-76
2023/07/17 09:30:20;;;;;;;12.88;4.38;;;;;;;;;;4990675;28;98640;-76
2023/07/17 09:32:47;;;;;;;6.65;3.42;;;;;;;;;;4998292;28;99157;-76
2023/07/17 09:35:14;;;;;;;12.77;4.15;;;;;;;;;;5006126;28;99733;-76
2023/07/17 09:37:42;;;;;;;10.05;3.95;;;;;;;;;;4999983;28;100219;-76
2023/07/17 09:40:12;;;;;;;12.65;4.15;;;;;;;;;;4990589;28;98493;-75
2023/07/17 09:42:39;;;;;;;13.18;4.30;;;;;;;;;;4997800;28;99289;-76
2023/07/17 09:45:06;;;;;;;14.43;4.35;;;;;;;;;;4998075;28;100156;-75
2023/07/17 09:47:32;;;;;;;10.73;3.88;;;;;;;;;;4991896;28;98578;-75
2023/07/17 09:49:59;;;;;;;13.50;4.18;;;;;;;;;;4988978;28;99143;-75
2023/07/17 09:52:27;;;;;;;16.70;5.03;;;;;;;;;;4992672;28;99282;-76
2023/07/17 09:54:54;;;;;;;12.85;4.40;;;;;;;;;;5006955;28;98645;-75
2023/07/17 09:57:28;;;;;;;16.15;4.40;;;;;;;;;;5010193;28;99680;-76
2023/07/17 09:59:55;;;;;;;17.02;4.15;;;;;;;;;;5009887;28;100385;-76
2023/07/17 10:02:23;;;;;;;11.88;3.60;;;;;;;;;;4989318;28;100128;-76
2023/07/17 10:04:52;;;;;;;7.40;3.40;;;;;;;;;;5006069;28;100225;-77
2023/07/17 10:07:19;;;;;;;11.50;4.10;;;;;;;;;;5010055;28;98590;-75
2023/07/17 10:09:49;;;;;;;8.80;3.00;;;;;;;;;;5010044;28;99256;-76
2023/07/17 10:12:16;;;;;;;7.50;3.47;;;;;;;;;;4989789;28;100633;-75
2023/07/17 10:14:44;;;;;;;11.52;3.85;;;;;;;;;;4988830;28;98927;-76
2023/07/17 10:17:42;;;;;;;11.27;3.53;;;;;;;;;;4997524;28;99512;-76
2023/07/17 10:20:10;;;;;;;17.75;4.32;;;;;;;;;;4975983;28;99602;-76
2023/07/17 10:22:40;;;;;;;8.15;2.88;;;;;;;;;;4992662;28;98764;-76
2023/07/17 10:25:10;;;;;;;10.15;3.40;;;;;;;;;;4989027;28;100304;-76
2023/07/17 10:27:40;;;;;;;8.02;2.92;;;;;;;;;;4993425;28;98542;-76
2023/07/17 10:30:25;;;;;;;16.45;2.70;;;;;;;;;;4990045;28;100402;-76
2023/07/17 10:33:12;;;;;;;7.47;2.58;;;;;;;;;;5006546;28;99837;-77
2023/07/17 10:36:00;;;;;;;6.95;2.70;;;;;;;;;;5009983;28;98949;-77
2023/07/17 10:38:28;;;;;;;6.82;2.63;;;;;;;;;;4998562;28;99213;-77
2023/07/17 10:41:05;;;;;;;6.32;2.50;;;;;;;;;;4987505;28;99491;-77
2023/07/17 10:43:34;;;;;;;6.15;2.70;;;;;;;;;;4992433;28;97834;-77
2023/07/17 10:46:07;;;;;;;11.43;3.37;;;;;;;;;;4999003;28;98629;-76
2023/07/17 10:48:34;;;;;;;10.70;3.33;;;;;;;;;;5009171;28;98544;-77
2023/07/17 10:51:00;;;;;;;11.68;4.00;;;;;;;;;;5004967;28;99312;-77
2023/07/17 10:53:27;;;;;;;10.77;3.72;;;;;;;;;;5005519;28;100537;-77
2023/07/17 10:55:54;;;;;;;7.80;3.53;;;;;;;;;;5009464;28;98570;-77
2023/07/17 10:58:20;;;;;;;11.60;3.33;;;;;;;;;;5009280;28;99222;-77
2023/07/17 11:00:47;;;;;;;12.50;4.40;;;;;;;;;;5007136;28;99738;-77
2023/07/17 11:03:15;;;;;;;13.57;3.40;;;;;;;;;;4999225;28;99010;-77
2023/07/17 11:05:42;;;;;;;13.15;3.50;;;;;;;;;;5009476;28;99124;-76
2023/07/17 11:08:09;;;;;;;8.52;3.08;;;;;;;;;;5005671;28;99142;-77
2023/07/17 11:10:36;;;;;;;8.63;3.28;;;;;;;;;;4991776;28;99381;-76
2023/07/17 11:13:03;;;;;;;8.18;3.10;;;;;;;;;;4995077;28;100259;-77
2023/07/17 11:15:33;;;;;;;8.98;3.60;;;;;;;;;;4991887;28;99330;-78
2023/07/17 11:18:00;;;;;;;8.55;3.45;;;;;;;;;;4989391;28;100258;-77
2023/07/17 11:20:28;;;;;;;6.50;3.22;;;;;;;;;;4988295;28;100193;-75
2023/07/17 11:22:55;;;;;;;10.48;3.60;;;;;;;;;;4988768;28;98957;-75
2023/07/17 11:25:25;;;;;;;12.20;4.55;;;;;;;;;;4989547;28;100602;-76
2023/07/17 11:27:53;;;;;;;10.93;3.65;;;;;;;;;;4989932;28;99549;-76
2023/07/17 11:30:20;;;;;;;15.65;4.45;;;;;;;;;;5002428;28;98707;-75
2023/07/17 11:32:50;;;;;;;12.20;4.50;;;;;;;;;;4991058;28;99116;-76
2023/07/17 11:35:18;;;;;;;13.02;4.40;;;;;;;;;;4993801;28;98610;-76
2023/07/17 11:37:45;;;;;;;11.55;4.63;;;;;;;;;;4990873;28;99275;-76
2023/07/17 11:40:11;;;;;;;13.35;4.80;;;;;;;;;;4993271;28;100289;-76
2023/07/17 11:42:57;;;;;;;11.10;4.63;;;;;;;;;;5005181;28;98653;-75
2023/07/17 11:45:24;;;;;;;12.07;4.82;;;;;;;;;;4994580;28;99378;-76
2023/07/17 11:47:52;;;;;;;16.25;4.55;;;;;;;;;;5003551;28;99646;-75
2023/07/17 11:50:19;;;;;;;9.32;4.55;;;;;;;;;;4994019;28;99046;-74
2023/07/17 11:52:45;;;;;;;16.58;5.22;;;;;;;;;;5005845;28;103305;-75
2023/07/17 11:55:12;;;;;;;14.77;4.40;;;;;;;;;;4995897;28;98594;-76
2023/07/17 11:57:38;;;;;;;14.13;4.38;;;;;;;;;;4992523;28;99861;-75
2023/07/17 12:00:10;;;;;;;15.00;5.37;;;;;;;;;;4993045;28;100665;-75
2023/07/17 12:02:36;;;;;;;11.48;4.78;;;;;;;;;;4994701;28;98910;-76
2023/07/17 12:05:03;;;;;;;13.52;5.10;;;;;;;;;;4990904;28;99593;-76
2023/07/17 12:07:29;;;;;;;14.52;4.20;;;;;;;;;;4991010;28;99679;-75
2023/07/17 12:09:55;;;;;;;12.35;4.53;;;;;;;;;;5003549;28;99003;-75
2023/07/17 12:12:22;;;;;;;8.85;4.10;;;;;;;;;;5013735;28;99287;-76
2023/07/17 12:14:48;;;;;;;12.15;3.78;;;;;;;;;;5008848;28;99014;-75
2023/07/17 12:17:15;;;;;;;12.57;4.50;;;;;;;;;;4998968;28;99250;-75
2023/07/17 12:19:42;;;;;;;9.70;3.83;;;;;;;;;;5001168;28;99612;-75
2023/07/17 12:22:08;;;;;;;14.85;4.70;;;;;;;;;;5011243;28;97739;-75
2023/07/17 12:24:38;;;;;;;19.52;4.72;;;;;;;;;;5010841;28;98564;-75
2023/07/17 12:27:04;;;;;;;10.20;4.72;;;;;;;;;;5004560;28;100141;-74
2023/07/17 12:29:33;;;;;;;10.63;4.75;;;;;;;;;;4990755;28;99645;-75
2023/07/17 12:31:59;;;;;;;16.05;5.95;;;;;;;;;;4991791;28;101070;-74
2023/07/17 12:34:26;;;;;;;12.00;5.30;;;;;;;;;;4997493;28;99488;-75
2023/07/17 12:36:52;;;;;;;23.42;7.40;;;;;;;;;;5000826;28;99292;-73
2023/07/17 12:39:21;;;;;;;10.57;3.80;;;;;;;;;;4990479;28;100579;-72
2023/07/17 12:41:47;;;;;;;10.02;4.28;;;;;;;;;;4993918;28;98610;-73
2023/07/17 12:44:13;;;;;;;10.68;5.05;;;;;;;;;;5009918;28;100266;-72
2023/07/17 12:46:40;;;;;;;10.73;4.85;;;;;;;;;;5008974;28;98933;-73
2023/07/17 12:49:06;;;;;;;10.90;4.72;;;;;;;;;;5003733;28;98561;-74
2023/07/17 12:51:33;;;;;;;13.50;5.13;;;;;;;;;;4990996;28;99311;-74
2023/07/17 12:53:59;;;;;;;9.07;4.55;;;;;;;;;;4990927;28;100803;-74
2023/07/17 12:56:26;;;;;;;8.02;4.53;;;;;;;;;;4998320;28;98601;-74
2023/07/17 12:58:53;;;;;;;11.35;4.97;;;;;;;;;;5006549;28;100482;-74
2023/07/17 13:01:20;;;;;;;9.85;4.53;;;;;;;;;;5002280;28;98497;-74
2023/07/17 13:03:47;;;;;;;10.35;5.07;;;;;;;;;;4990929;28;99167;-75
2023/07/17 13:06:15;;;;;;;11.93;5.40;;;;;;;;;;5003069;28;100255;-74
2023/07/17 13:08:41;;;;;;;12.07;5.45;;;;;;;;;;4992374;28;98571;-74
2023/07/17 13:11:08;;;;;;;14.90;5.70;;;;;;;;;;4991517;28;99294;-73
2023/07/17 13:13:34;;;;;;;15.93;5.50;;;;;;;;;;4990735;28;100115;-73
2023/07/17 13:16:00;;;;;;;14.18;6.00;;;;;;;;;;5005125;28;98628;-73
2023/07/17 13:18:27;;;;;;;11.20;5.43;;;;;;;;;;5013446;28;100668;-73
2023/07/17 13:20:53;;;;;;;10.43;5.40;;;;;;;;;;5010782;28;98544;-73
2023/07/17 13:23:19;;;;;;;13.32;5.05;;;;;;;;;;5010694;28;99246;-73
2023/07/17 13:25:46;;;;;;;12.70;5.20;;;;;;;;;;5002231;28;99560;-72
2023/07/17 13:28:12;;;;;;;11.85;5.43;;;;;;;;;;5007136;28;100738;-73
2023/07/17 13:30:39;;;;;;;14.23;5.57;;;;;;;;;;5005153;28;99839;-72
2023/07/17 13:33:14;;;;;;;11.35;4.28;;;;;;;;;;5002210;28;99497;-72
2023/07/17 13:35:41;;;;;;;10.85;4.85;;;;;;;;;;5000158;28;97847;-73
2023/07/17 13:38:07;;;;;;;12.02;4.40;;;;;;;;;;5010562;28;98574;-73
2023/07/17 13:40:33;;;;;;;8.60;4.32;;;;;;;;;;5013728;28;99268;-73
2023/07/17 13:43:00;;;;;;;9.88;4.63;;;;;;;;;;5002119;28;99728;-73
2023/07/17 13:45:27;;;;;;;12.00;4.57;;;;;;;;;;5001439;28;100054;-73
2023/07/17 13:47:53;;;;;;;11.57;4.28;;;;;;;;;;5010714;28;98499;-73
2023/07/17 13:50:19;;;;;;;9.10;4.30;;;;;;;;;;4996003;28;99179;-73
2023/07/17 13:52:46;;;;;;;12.95;4.57;;;;;;;;;;4993694;28;100630;-73
2023/07/17 13:55:13;;;;;;;8.45;3.97;;;;;;;;;;5008984;28;98589;-73
2023/07/17 13:57:39;;;;;;;13.07;4.68;;;;;;;;;;4999333;28;99245;-73
2023/07/17 14:00:06;;;;;;;7.38;3.40;;;;;;;;;;4995430;28;100236;-73
2023/07/17 14:02:32;;;;;;;8.93;3.50;;;;;;;;;;4988756;28;99072;-73
2023/07/17 14:04:59;;;;;;;8.85;3.67;;;;;;;;;;4993835;28;99519;-73
2023/07/17 14:07:25;;;;;;;13.27;3.50;;;;;;;;;;5008359;28;99292;-73
2023/07/17 14:09:52;;;;;;;7.75;3.63;;;;;;;;;;5002252;28;100019;-73
2023/07/17 14:12:18;;;;;;;10.48;4.00;;;;;;;;;;5006912;28;99701;-74
2023/07/17 14:14:44;;;;;;;10.50;4.15;;;;;;;;;;5009847;28;98527;-73
2023/07/17 14:17:11;;;;;;;13.15;4.43;;;;;;;;;;5008429;28;103820;-73
2023/07/17 14:19:37;;;;;;;12.98;4.18;;;;;;;;;;5009608;28;99936;-73
2023/07/17 14:22:04;;;;;;;8.90;4.03;;;;;;;;;;5007595;28;98937;-73
2023/07/17 14:24:31;;;;;;;10.30;4.63;;;;;;;;;;4990030;28;98886;-73
2023/07/17 14:26:57;;;;;;;18.08;4.95;;;;;;;;;;4989894;28;98835;-73
2023/07/17 14:29:24;;;;;;;8.48;4.10;;;;;;;;;;4989807;28;99386;-73
2023/07/17 14:31:50;;;;;;;9.98;4.15;;;;;;;;;;4988233;28;100621;-73